createdAt,value
2019-02-21T00:00:36.602Z,7.01
2019-02-21T00:03:08.979Z,7.02
2019-02-21T00:05:41.024Z,7.02
2019-02-21T00:08:13.487Z,6.93
2019-02-21T00:10:45.370Z,6.91
2019-02-21T00:13:18.781Z,6.92
2019-02-21T00:15:50.687Z,6.91
2019-02-21T00:18:22.657Z,7.01
2019-02-21T00:20:57.647Z,6.90
2019-02-21T00:23:29.523Z,6.79
2019-02-21T00:26:01.303Z,6.68
2019-02-21T00:28:34.270Z,6.69
2019-02-21T00:31:06.164Z,6.67
2019-02-21T00:33:38.034Z,6.56
2019-02-21T00:36:09.874Z,6.68
2019-02-21T00:38:41.714Z,6.68
2019-02-21T00:41:16.232Z,6.73
2019-02-21T00:43:48.383Z,6.75
2019-02-21T00:46:20.323Z,6.67
2019-02-21T00:48:53.764Z,6.66
2019-02-21T00:51:25.625Z,6.58
2019-02-21T00:53:57.423Z,6.50
2019-02-21T00:56:29.407Z,6.34
2019-02-21T00:59:01.234Z,6.28
2019-02-21T01:01:33.099Z,6.16
2019-02-21T01:04:05.923Z,6.15
2019-02-21T01:06:37.774Z,6.16
2019-02-21T01:09:10.666Z,6.16
2019-02-21T01:11:42.857Z,6.13
2019-02-21T01:14:17.911Z,6.13
2019-02-21T01:16:51.506Z,6.13
2019-02-21T01:19:23.576Z,6.08
2019-02-21T01:21:55.428Z,6.07
2019-02-21T01:24:30.000Z,6.02
2019-02-21T01:27:02.550Z,6.05
2019-02-21T01:29:34.461Z,6.09
2019-02-21T01:32:07.619Z,6.06
2019-02-21T01:34:41.179Z,6.08
2019-02-21T01:37:14.795Z,6.04
2019-02-21T01:39:47.105Z,6.10
2019-02-21T01:42:19.042Z,6.04
2019-02-21T01:44:50.885Z,5.97
2019-02-21T01:47:22.757Z,5.91
2019-02-21T01:49:54.678Z,5.81
2019-02-21T01:52:26.549Z,5.78
2019-02-21T01:54:58.356Z,5.79
2019-02-21T01:57:30.576Z,5.80
2019-02-21T02:00:02.419Z,5.81
2019-02-21T02:02:34.791Z,5.82
2019-02-21T02:05:07.139Z,5.89
2019-02-21T02:07:39.752Z,5.88
2019-02-21T02:10:11.788Z,5.92
2019-02-21T02:12:43.637Z,5.94
2019-02-21T02:15:15.513Z,6.03
2019-02-21T02:17:47.370Z,6.04
2019-02-21T02:20:20.234Z,5.99
2019-02-21T02:22:53.146Z,5.97
2019-02-21T02:25:26.691Z,5.88
2019-02-21T02:27:58.862Z,5.78
2019-02-21T02:30:30.709Z,5.66
2019-02-21T02:33:02.517Z,5.52
2019-02-21T02:35:35.383Z,5.48
2019-02-21T02:38:07.972Z,5.38
2019-02-21T02:40:39.820Z,5.34
2019-02-21T02:43:11.670Z,5.30
2019-02-21T02:45:43.533Z,5.37
2019-02-21T02:48:15.336Z,5.34
2019-02-21T02:50:47.219Z,5.37
2019-02-21T02:53:19.101Z,5.42
2019-02-21T02:55:50.958Z,5.42
2019-02-21T02:58:22.881Z,5.47
2019-02-21T03:00:54.765Z,5.48
2019-02-21T03:03:27.325Z,5.47
2019-02-21T03:05:59.171Z,5.48
2019-02-21T03:08:32.129Z,5.40
2019-02-21T03:11:03.979Z,5.44
2019-02-21T03:13:35.983Z,5.52
2019-02-21T03:16:10.495Z,5.49
2019-02-21T03:18:42.324Z,5.49
2019-02-21T03:21:14.446Z,5.45
2019-02-21T03:23:46.319Z,5.40
2019-02-21T03:26:20.403Z,5.36
2019-02-21T03:28:52.809Z,5.24
2019-02-21T03:31:24.620Z,5.16
2019-02-21T03:33:56.757Z,5.03
2019-02-21T03:36:29.030Z,4.97
2019-02-21T03:39:00.873Z,4.86
2019-02-21T03:41:35.826Z,4.84
2019-02-21T03:44:09.271Z,4.84
2019-02-21T03:46:41.138Z,4.86
2019-02-21T03:49:12.970Z,4.94
2019-02-21T03:51:47.110Z,4.97
2019-02-21T03:54:19.003Z,5.06
2019-02-21T03:56:51.011Z,5.16
2019-02-21T03:59:23.287Z,5.14
2019-02-21T04:02:04.872Z,5.14
2019-02-21T04:04:29.515Z,5.20
2019-02-21T04:07:01.396Z,5.30
2019-02-21T04:09:33.268Z,5.29
2019-02-21T04:12:05.134Z,5.31
2019-02-21T04:14:37.888Z,5.26
2019-02-21T04:17:09.693Z,5.14
2019-02-21T04:19:41.908Z,4.95
2019-02-21T04:22:13.813Z,4.87
2019-02-21T04:24:48.183Z,4.86
2019-02-21T04:27:20.298Z,4.84
2019-02-21T04:29:52.701Z,4.83
2019-02-21T04:32:24.478Z,4.85
2019-02-21T04:34:57.990Z,4.87
2019-02-21T04:37:29.873Z,4.78
2019-02-21T04:40:01.677Z,4.80
2019-02-21T04:42:33.873Z,4.68
2019-02-21T04:45:05.911Z,4.66
2019-02-21T04:47:37.815Z,4.65
2019-02-21T04:50:09.648Z,4.70
2019-02-21T04:52:41.567Z,4.75
2019-02-21T04:55:13.409Z,4.80
2019-02-21T04:57:47.632Z,4.85
2019-02-21T05:00:22.262Z,4.82
2019-02-21T05:02:54.045Z,4.91
2019-02-21T05:05:25.899Z,4.90
2019-02-21T05:07:57.740Z,4.91
2019-02-21T05:10:29.563Z,4.88
2019-02-21T05:13:01.436Z,4.85
2019-02-21T05:15:33.242Z,4.83
2019-02-21T05:18:06.378Z,4.81
2019-02-21T05:20:39.822Z,4.83
2019-02-21T05:23:12.982Z,4.76
2019-02-21T05:25:44.735Z,4.72
2019-02-21T05:28:29.001Z,4.66
2019-02-21T05:31:05.519Z,4.59
2019-02-21T05:34:05.540Z,4.61
2019-02-21T05:37:00.787Z,4.60
2019-02-21T05:40:03.878Z,4.56
2019-02-21T05:42:51.766Z,4.58
2019-02-21T05:45:38.118Z,4.48
2019-02-21T05:48:30.302Z,4.41
2019-02-21T05:51:22.314Z,4.34
2019-02-21T05:54:13.015Z,4.28
2019-02-21T05:57:07.378Z,4.31
2019-02-21T06:00:11.999Z,4.33
2019-02-21T06:03:08.595Z,4.28
2019-02-21T06:06:05.516Z,4.35
2019-02-21T06:08:50.445Z,4.44
2019-02-21T06:11:47.106Z,4.50
2019-02-21T06:14:40.658Z,4.55
2019-02-21T06:17:31.323Z,4.57
2019-02-21T06:20:22.660Z,4.52
2019-02-21T06:23:14.658Z,4.48
2019-02-21T06:25:58.196Z,4.47
2019-02-21T06:28:31.551Z,4.45
2019-02-21T06:31:06.430Z,4.43
2019-02-21T06:33:38.384Z,4.31
2019-02-21T06:36:10.190Z,4.26
2019-02-21T06:38:43.764Z,4.20
2019-02-21T06:41:15.586Z,4.24
2019-02-21T06:43:47.732Z,4.27
2019-02-21T06:46:19.890Z,4.27
2019-02-21T06:48:52.008Z,4.27
2019-02-21T06:51:23.845Z,4.36
2019-02-21T06:53:55.663Z,4.43
2019-02-21T06:56:27.499Z,4.48
2019-02-21T06:58:59.354Z,4.57
2019-02-21T07:01:31.213Z,4.70
2019-02-21T07:04:03.047Z,4.76
2019-02-21T07:06:35.482Z,4.71
2019-02-21T07:09:07.368Z,4.62
2019-02-21T07:11:39.209Z,4.64
2019-02-21T07:14:11.073Z,4.69
2019-02-21T07:16:42.845Z,4.73
2019-02-21T07:19:15.814Z,4.79
2019-02-21T07:21:47.591Z,4.75
2019-02-21T07:24:19.435Z,4.66
2019-02-21T07:26:51.261Z,4.70
2019-02-21T07:29:23.170Z,4.64
2019-02-21T07:31:55.026Z,4.61
2019-02-21T07:34:27.286Z,4.57
2019-02-21T07:36:59.189Z,4.55
2019-02-21T07:39:35.952Z,4.61
2019-02-21T07:42:04.544Z,4.69
2019-02-21T07:44:36.425Z,4.70
2019-02-21T07:47:08.230Z,4.75
2019-02-21T07:49:40.078Z,4.91
2019-02-21T07:52:11.914Z,5.01
2019-02-21T07:54:44.415Z,5.10
2019-02-21T07:57:17.165Z,5.15
2019-02-21T07:59:48.991Z,5.22
2019-02-21T08:02:21.138Z,5.36
2019-02-21T08:04:53.107Z,5.41
2019-02-21T08:07:26.400Z,5.51
2019-02-21T08:09:58.380Z,5.63
2019-02-21T08:12:30.211Z,5.61
2019-02-21T08:15:01.989Z,5.74
2019-02-21T08:17:33.931Z,5.90
2019-02-21T08:20:08.704Z,5.82
2019-02-21T08:22:42.546Z,5.88
2019-02-21T08:25:14.421Z,5.75
2019-02-21T08:27:46.879Z,5.67
2019-02-21T08:30:18.767Z,5.61
2019-02-21T08:33:02.845Z,5.66
2019-02-21T08:35:35.719Z,5.76
2019-02-21T08:38:12.011Z,5.91
2019-02-21T08:40:43.029Z,6.11
2019-02-21T08:43:16.407Z,6.35
2019-02-21T08:45:50.280Z,6.72
2019-02-21T08:48:23.766Z,7.03
2019-02-21T08:50:55.559Z,7.80
2019-02-21T08:53:28.284Z,7.91
2019-02-21T08:56:00.268Z,8.38
2019-02-21T08:58:32.232Z,8.28
2019-02-21T09:01:04.061Z,8.59
2019-02-21T09:03:35.946Z,10.39
2019-02-21T09:06:08.014Z,12.29
2019-02-21T09:08:39.867Z,12.76
2019-02-21T09:11:11.715Z,14.17
2019-02-21T09:13:43.670Z,13.71
2019-02-21T09:16:17.684Z,15.68
2019-02-21T09:18:49.205Z,15.90
2019-02-21T09:21:22.387Z,16.15
2019-02-21T09:23:56.535Z,16.19
2019-02-21T09:26:29.188Z,17.28
2019-02-21T09:29:00.992Z,17.08
2019-02-21T09:31:32.865Z,16.94
2019-02-21T09:34:04.769Z,19.31
2019-02-21T09:36:37.901Z,21.86
2019-02-21T09:39:09.832Z,22.69
2019-02-21T09:41:44.225Z,22.73
2019-02-21T09:44:18.226Z,23.14
2019-02-21T09:46:50.463Z,23.14
2019-02-21T09:49:22.434Z,24.22
2019-02-21T09:51:54.287Z,24.17
2019-02-21T09:54:26.218Z,23.60
2019-02-21T09:56:58.083Z,24.60
2019-02-21T09:59:29.903Z,25.67
2019-02-21T10:02:01.756Z,24.97
2019-02-21T10:04:33.622Z,24.66
2019-02-21T10:07:06.394Z,23.92
2019-02-21T10:09:38.405Z,22.34
2019-02-21T10:12:10.355Z,22.42
2019-02-21T10:14:42.211Z,20.65
2019-02-21T10:17:14.175Z,21.21
2019-02-21T10:19:45.948Z,22.08
2019-02-21T10:22:20.461Z,21.86
2019-02-21T10:24:52.291Z,21.43
2019-02-21T10:27:24.171Z,21.44
2019-02-21T10:29:56.035Z,19.45
2019-02-21T10:32:30.610Z,20.04
2019-02-21T10:35:02.429Z,22.03
2019-02-21T10:37:37.003Z,21.81
2019-02-21T10:40:10.509Z,23.46
2019-02-21T10:42:43.431Z,23.98
2019-02-21T10:45:17.002Z,25.81
2019-02-21T10:47:48.903Z,26.72
2019-02-21T10:50:24.248Z,26.67
2019-02-21T10:52:56.152Z,26.51
2019-02-21T10:55:28.071Z,26.39
2019-02-21T10:58:00.044Z,27.67
2019-02-21T11:00:32.129Z,26.96
2019-02-21T11:03:03.926Z,27.91
2019-02-21T11:05:35.786Z,27.38
2019-02-21T11:08:10.193Z,25.40
2019-02-21T11:10:42.056Z,25.84
2019-02-21T11:13:13.866Z,26.71
2019-02-21T11:15:45.830Z,25.83
2019-02-21T11:18:17.843Z,26.31
2019-02-21T11:20:51.854Z,24.89
2019-02-21T11:23:23.677Z,27.05
2019-02-21T11:25:58.795Z,28.81
2019-02-21T11:28:30.708Z,30.28
2019-02-21T11:31:02.637Z,31.36
2019-02-21T11:33:34.502Z,32.52
2019-02-21T11:36:06.443Z,32.43
2019-02-21T11:38:38.238Z,32.65
2019-02-21T11:41:10.063Z,34.31
2019-02-21T11:43:41.876Z,33.77
2019-02-21T11:46:13.709Z,31.45
2019-02-21T11:48:51.679Z,31.59
2019-02-21T11:51:26.128Z,32.81
2019-02-21T11:53:57.920Z,32.04
2019-02-21T11:56:29.851Z,30.09
2019-02-21T11:59:03.421Z,29.16
2019-02-21T12:01:35.243Z,28.46
2019-02-21T12:04:07.075Z,28.00
2019-02-21T12:06:39.012Z,28.05
2019-02-21T12:09:13.188Z,27.77
2019-02-21T12:11:45.048Z,29.33
2019-02-21T12:14:16.909Z,28.14
2019-02-21T12:16:48.711Z,28.84
2019-02-21T12:19:23.637Z,29.20
2019-02-21T12:21:59.007Z,29.38
2019-02-21T12:24:30.045Z,29.87
2019-02-21T12:27:02.265Z,30.17
2019-02-21T12:29:34.128Z,28.94
2019-02-21T12:32:08.363Z,28.73
2019-02-21T12:34:40.153Z,28.76
2019-02-21T12:37:11.996Z,28.98
2019-02-21T12:39:46.197Z,27.50
2019-02-21T12:42:18.114Z,25.33
2019-02-21T12:44:50.941Z,24.64
2019-02-21T12:47:24.456Z,23.35
2019-02-21T12:49:59.067Z,22.47
2019-02-21T12:52:32.175Z,21.68
2019-02-21T12:55:04.098Z,21.22
2019-02-21T12:57:36.245Z,20.83
2019-02-21T13:00:13.098Z,20.68
2019-02-21T13:02:44.991Z,20.26
2019-02-21T13:05:16.867Z,19.98
2019-02-21T13:07:48.705Z,20.36
2019-02-21T13:10:20.565Z,20.40
2019-02-21T13:12:52.417Z,20.21
2019-02-21T13:15:24.273Z,20.66
2019-02-21T13:17:56.209Z,21.01
2019-02-21T13:20:28.382Z,21.00
2019-02-21T13:23:00.735Z,20.72
2019-02-21T13:25:32.669Z,20.79
2019-02-21T13:28:06.875Z,20.64
2019-02-21T13:30:38.758Z,20.25
2019-02-21T13:33:11.090Z,20.48
2019-02-21T13:35:52.250Z,20.32
2019-02-21T13:38:17.696Z,20.35
2019-02-21T13:40:52.784Z,20.54
2019-02-21T13:43:25.627Z,20.39
2019-02-21T13:45:57.821Z,20.51
2019-02-21T13:48:31.937Z,20.40
2019-02-21T13:51:03.825Z,20.84
2019-02-21T13:53:37.917Z,21.04
2019-02-21T13:56:12.778Z,20.90
2019-02-21T13:58:44.894Z,21.06
2019-02-21T14:01:16.912Z,21.08
2019-02-21T14:03:50.062Z,21.00
2019-02-21T14:06:21.884Z,21.39
2019-02-21T14:08:53.726Z,21.22
2019-02-21T14:11:26.587Z,21.01
2019-02-21T14:13:58.383Z,20.96
2019-02-21T14:16:30.434Z,20.45
2019-02-21T14:19:04.017Z,20.62
2019-02-21T14:21:35.850Z,20.83
2019-02-21T14:24:07.833Z,20.64
2019-02-21T14:26:39.688Z,20.63
2019-02-21T14:29:11.479Z,20.62
2019-02-21T14:31:43.952Z,20.59
2019-02-21T14:34:15.795Z,20.77
2019-02-21T14:36:49.547Z,21.10
2019-02-21T14:39:21.399Z,21.43
2019-02-21T14:41:54.485Z,21.58
2019-02-21T14:44:26.326Z,21.80
2019-02-21T14:46:58.106Z,21.89
2019-02-21T14:49:29.944Z,21.65
2019-02-21T14:52:02.037Z,21.13
2019-02-21T14:54:34.345Z,20.93
2019-02-21T14:57:06.648Z,20.82
2019-02-21T14:59:38.573Z,20.54
2019-02-21T15:02:10.377Z,20.31
2019-02-21T15:04:43.928Z,20.30
2019-02-21T15:07:15.990Z,20.33
2019-02-21T15:09:47.822Z,20.14
2019-02-21T15:12:19.665Z,20.17
2019-02-21T15:14:51.450Z,20.18
2019-02-21T15:17:23.289Z,20.08
2019-02-21T15:19:55.091Z,20.05
2019-02-21T15:22:28.740Z,20.13
2019-02-21T15:25:00.803Z,20.39
2019-02-21T15:27:32.961Z,20.45
2019-02-21T15:30:05.237Z,20.43
2019-02-21T15:32:38.613Z,20.62
2019-02-21T15:35:12.869Z,20.81
2019-02-21T15:37:45.305Z,21.03
2019-02-21T15:40:17.533Z,21.03
2019-02-21T15:42:52.403Z,20.92
2019-02-21T15:45:24.381Z,21.39
2019-02-21T15:47:57.407Z,21.50
2019-02-21T15:50:33.693Z,21.30
2019-02-21T15:53:06.333Z,21.13
2019-02-21T15:55:39.204Z,21.35
2019-02-21T15:58:11.523Z,21.62
2019-02-21T16:00:44.934Z,21.26
2019-02-21T16:03:22.236Z,21.35
2019-02-21T16:05:58.288Z,21.22
2019-02-21T16:08:31.993Z,21.02
2019-02-21T16:11:04.869Z,20.90
2019-02-21T16:13:38.998Z,20.76
2019-02-21T16:16:13.807Z,20.71
2019-02-21T16:18:48.026Z,20.62
2019-02-21T16:21:20.644Z,20.50
2019-02-21T16:23:52.943Z,20.59
2019-02-21T16:26:25.245Z,20.50
2019-02-21T16:28:58.124Z,20.54
2019-02-21T16:31:33.991Z,20.65
2019-02-21T16:34:10.720Z,20.67
2019-02-21T16:36:43.531Z,20.84
2019-02-21T16:39:16.417Z,20.77
2019-02-21T16:41:49.023Z,20.49
2019-02-21T16:44:21.586Z,20.44
2019-02-21T16:46:55.673Z,20.37
2019-02-21T16:49:28.643Z,20.28
2019-02-21T16:52:02.288Z,20.08
2019-02-21T16:54:34.348Z,19.88
2019-02-21T16:57:06.909Z,19.74
2019-02-21T16:59:39.728Z,19.68
2019-02-21T17:02:15.826Z,19.62
2019-02-21T17:04:49.352Z,19.48
2019-02-21T17:07:21.320Z,19.35
2019-02-21T17:09:54.759Z,19.22
2019-02-21T17:12:26.597Z,19.13
2019-02-21T17:14:58.468Z,18.97
2019-02-21T17:17:32.175Z,18.92
2019-02-21T17:20:04.051Z,18.90
2019-02-21T17:22:35.929Z,18.85
2019-02-21T17:25:09.963Z,18.77
2019-02-21T17:27:41.940Z,18.62
2019-02-21T17:30:16.210Z,18.59
2019-02-21T17:32:48.622Z,18.53
2019-02-21T17:35:20.683Z,18.49
2019-02-21T17:37:52.612Z,18.33
2019-02-21T17:40:25.037Z,18.08
2019-02-21T17:42:56.843Z,17.93
2019-02-21T17:45:28.731Z,17.85
2019-02-21T17:48:01.746Z,17.68
2019-02-21T17:50:34.884Z,17.56
2019-02-21T17:53:07.171Z,17.39
2019-02-21T17:55:39.061Z,17.27
2019-02-21T17:58:11.006Z,17.12
2019-02-21T18:00:42.819Z,16.93
2019-02-21T18:03:14.672Z,16.80
2019-02-21T18:05:46.527Z,16.70
2019-02-21T18:08:18.395Z,16.57
2019-02-21T18:10:50.242Z,16.35
2019-02-21T18:13:22.727Z,16.18
2019-02-21T18:15:54.893Z,16.05
2019-02-21T18:18:26.755Z,15.98
2019-02-21T18:20:58.702Z,15.86
2019-02-21T18:23:34.186Z,15.72
2019-02-21T18:26:10.948Z,15.55
2019-02-21T18:28:42.810Z,15.43
2019-02-21T18:31:25.285Z,15.34
2019-02-21T18:33:57.135Z,15.22
2019-02-21T18:36:34.016Z,15.24
2019-02-21T18:39:08.148Z,15.23
2019-02-21T18:41:41.633Z,15.12
2019-02-21T18:44:13.548Z,15.06
2019-02-21T18:46:45.499Z,14.95
2019-02-21T18:49:17.606Z,14.87
2019-02-21T18:51:49.668Z,14.77
2019-02-21T18:54:27.930Z,14.68
2019-02-21T18:57:00.079Z,14.58
2019-02-21T18:59:32.829Z,14.61
2019-02-21T19:02:07.217Z,14.59
2019-02-21T19:04:39.293Z,14.49
2019-02-21T19:07:11.554Z,14.41
2019-02-21T19:09:44.206Z,14.35
2019-02-21T19:12:26.458Z,14.26
2019-02-21T19:15:02.182Z,14.22
2019-02-21T19:17:35.586Z,14.10
2019-02-21T19:20:09.342Z,14.04
2019-02-21T19:22:44.259Z,13.92
2019-02-21T19:25:16.618Z,13.89
2019-02-21T19:27:51.480Z,13.85
2019-02-21T19:30:44.605Z,13.72
2019-02-21T19:33:17.081Z,13.64
2019-02-21T19:35:49.634Z,13.59
2019-02-21T19:38:22.503Z,13.53
2019-02-21T19:40:54.564Z,13.49
2019-02-21T19:43:30.017Z,13.39
2019-02-21T19:46:02.669Z,13.38
2019-02-21T19:48:36.906Z,13.25
2019-02-21T19:51:09.170Z,13.09
2019-02-21T19:53:47.747Z,12.93
2019-02-21T19:56:19.755Z,12.86
2019-02-21T19:58:51.919Z,12.84
2019-02-21T20:01:28.498Z,12.85
2019-02-21T20:04:01.282Z,12.88
2019-02-21T20:06:33.442Z,12.86
2019-02-21T20:09:15.038Z,12.84
2019-02-21T20:11:50.584Z,12.82
2019-02-21T20:14:23.710Z,12.70
2019-02-21T20:17:00.545Z,12.67
2019-02-21T20:19:34.314Z,12.52
2019-02-21T20:22:09.912Z,12.42
2019-02-21T20:24:43.321Z,12.47
2019-02-21T20:27:15.648Z,12.50
2019-02-21T20:29:47.827Z,12.49
2019-02-21T20:32:19.935Z,12.39
2019-02-21T20:34:52.323Z,12.25
2019-02-21T20:37:26.072Z,12.09
2019-02-21T20:39:58.265Z,11.93
2019-02-21T20:42:31.515Z,11.92
2019-02-21T20:45:04.039Z,11.85
2019-02-21T20:47:43.036Z,11.91
2019-02-21T20:50:15.346Z,11.96
2019-02-21T20:52:47.405Z,11.96
2019-02-21T20:55:22.582Z,11.93
2019-02-21T20:57:54.666Z,11.90
2019-02-21T21:00:26.831Z,11.86
2019-02-21T21:02:58.744Z,11.72
2019-02-21T21:05:33.716Z,11.64
2019-02-21T21:08:05.712Z,11.55
2019-02-21T21:10:41.807Z,11.46
2019-02-21T21:13:14.021Z,11.38
2019-02-21T21:15:46.295Z,11.33
2019-02-21T21:18:18.367Z,11.15
2019-02-21T21:20:50.557Z,11.05
2019-02-21T21:23:23.509Z,10.97
2019-02-21T21:25:55.585Z,10.94
2019-02-21T21:28:27.617Z,10.83
2019-02-21T21:31:00.093Z,10.81
2019-02-21T21:33:33.550Z,10.76
2019-02-21T21:36:07.152Z,10.69
2019-02-21T21:38:40.034Z,10.65
2019-02-21T21:41:11.924Z,10.67
2019-02-21T21:43:43.775Z,10.72
2019-02-21T21:46:15.639Z,10.65
2019-02-21T21:48:53.300Z,10.72
2019-02-21T21:51:25.316Z,10.74
2019-02-21T21:53:57.179Z,10.65
2019-02-21T21:56:29.005Z,10.55
2019-02-21T21:59:01.947Z,10.47
2019-02-21T22:01:34.007Z,10.38
2019-02-21T22:04:06.020Z,10.31
2019-02-21T22:06:37.840Z,10.27
2019-02-21T22:09:09.896Z,10.19
2019-02-21T22:11:44.742Z,10.14
2019-02-21T22:14:16.655Z,10.09
2019-02-21T22:16:48.510Z,10.13
2019-02-21T22:19:20.377Z,10.10
2019-02-21T22:21:52.276Z,10.08
2019-02-21T22:24:24.160Z,9.91
2019-02-21T22:26:58.403Z,9.91
2019-02-21T22:29:30.412Z,9.79
2019-02-21T22:32:02.542Z,9.73
2019-02-21T22:34:34.390Z,9.79
2019-02-21T22:37:06.238Z,9.74
2019-02-21T22:39:38.097Z,9.77
2019-02-21T22:42:12.923Z,9.76
2019-02-21T22:44:44.864Z,9.70
2019-02-21T22:47:16.756Z,9.76
2019-02-21T22:49:48.668Z,9.81
2019-02-21T22:52:21.209Z,9.82
2019-02-21T22:54:53.124Z,9.72
2019-02-21T22:57:24.921Z,9.67
2019-02-21T22:59:56.850Z,9.53
2019-02-21T23:02:31.735Z,9.39
2019-02-21T23:05:43.862Z,9.25
2019-02-21T23:08:52.242Z,9.25
2019-02-21T23:11:34.133Z,9.32
2019-02-21T23:14:06.059Z,9.26
2019-02-21T23:16:38.145Z,9.18
2019-02-21T23:19:09.991Z,9.21
2019-02-21T23:21:44.299Z,9.14
2019-02-21T23:24:16.168Z,9.10
2019-02-21T23:26:50.066Z,9.07
2019-02-21T23:29:21.894Z,9.05
2019-02-21T23:31:55.974Z,8.88
2019-02-21T23:34:38.865Z,8.92
2019-02-21T23:37:10.724Z,8.88
2019-02-21T23:39:44.895Z,8.79
2019-02-21T23:42:18.315Z,8.74
2019-02-21T23:44:50.119Z,8.68
2019-02-21T23:47:21.978Z,8.62
2019-02-21T23:49:54.771Z,8.60
2019-02-21T23:52:26.615Z,8.59
2019-02-21T23:54:58.418Z,8.65
2019-02-21T23:57:30.281Z,8.62
